LXJ1202 KMKE-KBKL
Flight info
| Callsign | LXJ1202 |
|---|---|
| Flight time | 0h 44m |
| Altitude | 39000 |
| Route | SQUIB VIO HASTE BRWNZ4 |
| Aircraft | C750/M-SBDE3FGHRWXY/S |
Departure
| Time | 2026-05-05 22:25 |
|---|---|
| Airport | General Mitchell International Airport (KMKE) |
Arrival
| Time | 2026-05-05 23:10 |
|---|---|
| Airport | Burke Lakefront Airport (KBKL) |
| Time | Latitude | Longitude | Altitude | Speed | Heading |
|---|---|---|---|---|---|
| 2026-05-05 22:00 | 42.95820 | -87.89675 | 685 ft | 0 kts | 358° |
| 2026-05-05 22:18 | 42.95821 | -87.89674 | 685 ft | 1 kts | 10° |
| 2026-05-05 22:18 | 42.95823 | -87.89669 | 685 ft | 1 kts | 61° |
| 2026-05-05 22:19 | 42.95799 | -87.89639 | 685 ft | 7 kts | 141° |
| 2026-05-05 22:19 | 42.95753 | -87.89587 | 679 ft | 9 kts | 128° |
| 2026-05-05 22:19 | 42.95743 | -87.89490 | 685 ft | 12 kts | 92° |
| 2026-05-05 22:19 | 42.95670 | -87.89464 | 685 ft | 14 kts | 186° |
| 2026-05-05 22:20 | 42.95566 | -87.89484 | 685 ft | 17 kts | 189° |
| 2026-05-05 22:20 | 42.95437 | -87.89508 | 685 ft | 21 kts | 187° |
| 2026-05-05 22:20 | 42.95290 | -87.89533 | 685 ft | 21 kts | 187° |
| 2026-05-05 22:20 | 42.95150 | -87.89557 | 685 ft | 20 kts | 187° |
| 2026-05-05 22:21 | 42.95017 | -87.89580 | 685 ft | 19 kts | 187° |
| 2026-05-05 22:21 | 42.94888 | -87.89602 | 685 ft | 18 kts | 187° |
| 2026-05-05 22:21 | 42.94764 | -87.89623 | 685 ft | 17 kts | 187° |
| 2026-05-05 22:21 | 42.94649 | -87.89638 | 685 ft | 13 kts | 166° |
| 2026-05-05 22:22 | 42.94619 | -87.89527 | 685 ft | 14 kts | 95° |
| 2026-05-05 22:22 | 42.94611 | -87.89376 | 685 ft | 17 kts | 87° |
| 2026-05-05 22:22 | 42.94649 | -87.89212 | 683 ft | 20 kts | 72° |
| 2026-05-05 22:22 | 42.94696 | -87.89018 | 685 ft | 22 kts | 72° |
| 2026-05-05 22:23 | 42.94716 | -87.88898 | 685 ft | 0 kts | 108° |
| 2026-05-05 22:23 | 42.94706 | -87.88887 | 685 ft | 0 kts | 153° |
| 2026-05-05 22:24 | 42.94705 | -87.88887 | 685 ft | 1 kts | 153° |
| 2026-05-05 22:24 | 42.94651 | -87.88860 | 685 ft | 13 kts | 161° |
| 2026-05-05 22:24 | 42.94613 | -87.88886 | 682 ft | 0 kts | 251° |
| 2026-05-05 22:25 | 42.94599 | -87.88943 | 682 ft | 39 kts | 251° |
| 2026-05-05 22:25 | 42.94392 | -87.89785 | 738 ft | 130 kts | 255° |
| 2026-05-05 22:25 | 42.94086 | -87.91044 | 1096 ft | 153 kts | 255° |
| 2026-05-05 22:25 | 42.93701 | -87.92542 | 1543 ft | 181 kts | 252° |
| 2026-05-05 22:26 | 42.93228 | -87.94253 | 2023 ft | 203 kts | 252° |
| 2026-05-05 22:26 | 42.92423 | -87.95898 | 2564 ft | 231 kts | 222° |
| 2026-05-05 22:26 | 42.90794 | -87.96594 | 3053 ft | 266 kts | 181° |
| 2026-05-05 22:26 | 42.89085 | -87.95641 | 4230 ft | 272 kts | 143° |
| 2026-05-05 22:27 | 42.88029 | -87.93484 | 5224 ft | 282 kts | 107° |
| 2026-05-05 22:27 | 42.87969 | -87.90842 | 6302 ft | 279 kts | 80° |
| 2026-05-05 22:27 | 42.88330 | -87.88217 | 7277 ft | 286 kts | 78° |
| 2026-05-05 22:27 | 42.88573 | -87.85467 | 8203 ft | 298 kts | 86° |
| 2026-05-05 22:28 | 42.88649 | -87.82597 | 9207 ft | 307 kts | 89° |
| 2026-05-05 22:28 | 42.88740 | -87.79644 | 10067 ft | 317 kts | 88° |
| 2026-05-05 22:28 | 42.88904 | -87.76550 | 10523 ft | 340 kts | 86° |
| 2026-05-05 22:28 | 42.89084 | -87.73200 | 10707 ft | 368 kts | 87° |
| 2026-05-05 22:29 | 42.89243 | -87.69589 | 10946 ft | 391 kts | 88° |
| 2026-05-05 22:29 | 42.89401 | -87.65869 | 11683 ft | 395 kts | 88° |
| 2026-05-05 22:29 | 42.89576 | -87.62096 | 12338 ft | 403 kts | 87° |
| 2026-05-05 22:29 | 42.89754 | -87.58323 | 12951 ft | 396 kts | 88° |
| 2026-05-05 22:30 | 42.89924 | -87.54484 | 13010 ft | 411 kts | 88° |
| 2026-05-05 22:30 | 42.90094 | -87.50538 | 13466 ft | 418 kts | 88° |
| 2026-05-05 22:30 | 42.90270 | -87.46573 | 14183 ft | 422 kts | 88° |
| 2026-05-05 22:30 | 42.90448 | -87.42548 | 14794 ft | 427 kts | 88° |
| 2026-05-05 22:31 | 42.90624 | -87.38486 | 15435 ft | 432 kts | 88° |
| 2026-05-05 22:31 | 42.90800 | -87.34364 | 16083 ft | 437 kts | 88° |
| 2026-05-05 22:31 | 42.90978 | -87.30206 | 16758 ft | 441 kts | 88° |
| 2026-05-05 22:31 | 42.91155 | -87.26014 | 17456 ft | 445 kts | 87° |
| 2026-05-05 22:32 | 42.91332 | -87.21784 | 18137 ft | 450 kts | 87° |
| 2026-05-05 22:32 | 42.91511 | -87.17490 | 18748 ft | 455 kts | 88° |
| 2026-05-05 22:32 | 42.91687 | -87.13203 | 19361 ft | 461 kts | 88° |
| 2026-05-05 22:32 | 42.91865 | -87.08828 | 19994 ft | 466 kts | 88° |
| 2026-05-05 22:33 | 42.91795 | -87.04340 | 20575 ft | 468 kts | 99° |
| 2026-05-05 22:33 | 42.91423 | -86.99979 | 21229 ft | 472 kts | 100° |
| 2026-05-05 22:33 | 42.91076 | -86.95502 | 21869 ft | 477 kts | 100° |
| 2026-05-05 22:33 | 42.90744 | -86.90975 | 22533 ft | 481 kts | 100° |
| 2026-05-05 22:34 | 42.90386 | -86.86429 | 23180 ft | 485 kts | 101° |
| 2026-05-05 22:34 | 42.90001 | -86.81826 | 23738 ft | 490 kts | 101° |
| 2026-05-05 22:34 | 42.89626 | -86.77187 | 24265 ft | 495 kts | 101° |
| 2026-05-05 22:34 | 42.89260 | -86.72508 | 24772 ft | 500 kts | 101° |
| 2026-05-05 22:35 | 42.88881 | -86.67770 | 25280 ft | 504 kts | 101° |
| 2026-05-05 22:35 | 42.88486 | -86.63002 | 25782 ft | 508 kts | 101° |
| 2026-05-05 22:35 | 42.88088 | -86.58179 | 26275 ft | 513 kts | 101° |
| 2026-05-05 22:35 | 42.87693 | -86.53324 | 26762 ft | 518 kts | 101° |
| 2026-05-05 22:36 | 42.87292 | -86.48440 | 27262 ft | 522 kts | 101° |
| 2026-05-05 22:36 | 42.86880 | -86.43506 | 27772 ft | 526 kts | 101° |
| 2026-05-05 22:36 | 42.86462 | -86.38520 | 28281 ft | 530 kts | 100° |
| 2026-05-05 22:36 | 42.86042 | -86.33514 | 28789 ft | 535 kts | 100° |
| 2026-05-05 22:37 | 42.85617 | -86.28457 | 29284 ft | 539 kts | 100° |
| 2026-05-05 22:37 | 42.85184 | -86.23368 | 29763 ft | 543 kts | 100° |
| 2026-05-05 22:37 | 42.84745 | -86.18236 | 30192 ft | 547 kts | 100° |
| 2026-05-05 22:37 | 42.84302 | -86.13066 | 30576 ft | 552 kts | 100° |
| 2026-05-05 22:38 | 42.83854 | -86.07859 | 30983 ft | 555 kts | 100° |
| 2026-05-05 22:38 | 42.83400 | -86.02622 | 31531 ft | 556 kts | 100° |
| 2026-05-05 22:38 | 42.82943 | -85.97390 | 32001 ft | 559 kts | 100° |
| 2026-05-05 22:38 | 42.82481 | -85.92122 | 32490 ft | 561 kts | 99° |
| 2026-05-05 22:39 | 42.82015 | -85.86838 | 32997 ft | 563 kts | 99° |
| 2026-05-05 22:39 | 42.81546 | -85.81534 | 33486 ft | 565 kts | 99° |
| 2026-05-05 22:39 | 42.81071 | -85.76209 | 33969 ft | 568 kts | 99° |
| 2026-05-05 22:39 | 42.80598 | -85.70924 | 34422 ft | 569 kts | 99° |
| 2026-05-05 22:40 | 42.80111 | -85.65512 | 34960 ft | 569 kts | 99° |
| 2026-05-05 22:40 | 42.79627 | -85.60170 | 35499 ft | 568 kts | 99° |
| 2026-05-05 22:40 | 42.79145 | -85.54903 | 36019 ft | 568 kts | 99° |
| 2026-05-05 22:40 | 42.78383 | -85.49642 | 36519 ft | 566 kts | 108° |
| 2026-05-05 22:41 | 42.77110 | -85.44596 | 37081 ft | 560 kts | 117° |
| 2026-05-05 22:41 | 42.75460 | -85.39821 | 37642 ft | 556 kts | 122° |
| 2026-05-05 22:41 | 42.73643 | -85.35193 | 38173 ft | 555 kts | 124° |
| 2026-05-05 22:41 | 42.71827 | -85.30541 | 38648 ft | 558 kts | 121° |
| 2026-05-05 22:42 | 42.70197 | -85.25738 | 39002 ft | 563 kts | 118° |
| 2026-05-05 22:42 | 42.68606 | -85.20812 | 39012 ft | 574 kts | 118° |
| 2026-05-05 22:42 | 42.66890 | -85.15859 | 39015 ft | 584 kts | 118° |
| 2026-05-05 22:42 | 42.65239 | -85.10764 | 39019 ft | 595 kts | 117° |
| 2026-05-05 22:43 | 42.63650 | -85.05525 | 39020 ft | 604 kts | 115° |
| 2026-05-05 22:43 | 42.60504 | -84.94834 | 39020 ft | 615 kts | 116° |
| 2026-05-05 22:44 | 42.57135 | -84.84074 | 39019 ft | 623 kts | 115° |
| 2026-05-05 22:44 | 42.53784 | -84.73208 | 39006 ft | 624 kts | 119° |
| 2026-05-05 22:45 | 42.49803 | -84.62747 | 39014 ft | 623 kts | 122° |
| 2026-05-05 22:45 | 42.45944 | -84.52237 | 38997 ft | 625 kts | 120° |
| 2026-05-05 22:46 | 42.41993 | -84.41742 | 38998 ft | 625 kts | 121° |
| 2026-05-05 22:46 | 42.38057 | -84.31242 | 38997 ft | 626 kts | 120° |
| 2026-05-05 22:47 | 42.34136 | -84.20806 | 38989 ft | 621 kts | 121° |
| 2026-05-05 22:47 | 42.30193 | -84.10427 | 38991 ft | 621 kts | 121° |
| 2026-05-05 22:48 | 42.26268 | -84.00028 | 38985 ft | 621 kts | 121° |
| 2026-05-05 22:48 | 42.22304 | -83.89675 | 38982 ft | 622 kts | 121° |
| 2026-05-05 22:48 | 42.20370 | -83.84566 | 38436 ft | 603 kts | 121° |
| 2026-05-05 22:49 | 42.18481 | -83.79604 | 37589 ft | 585 kts | 121° |
| 2026-05-05 22:49 | 42.16631 | -83.74801 | 36837 ft | 570 kts | 122° |
| 2026-05-05 22:49 | 42.14799 | -83.70064 | 36090 ft | 573 kts | 122° |
| 2026-05-05 22:49 | 42.12971 | -83.65300 | 35346 ft | 572 kts | 122° |
| 2026-05-05 22:50 | 42.11156 | -83.60532 | 34586 ft | 569 kts | 122° |
| 2026-05-05 22:50 | 42.09351 | -83.55822 | 33844 ft | 565 kts | 122° |
| 2026-05-05 22:50 | 42.07540 | -83.51143 | 33056 ft | 558 kts | 123° |
| 2026-05-05 22:50 | 42.05774 | -83.46569 | 32332 ft | 545 kts | 123° |
| 2026-05-05 22:51 | 42.04065 | -83.42119 | 31635 ft | 527 kts | 123° |
| 2026-05-05 22:51 | 42.02406 | -83.37817 | 30952 ft | 507 kts | 123° |
| 2026-05-05 22:51 | 42.01019 | -83.33504 | 30246 ft | 503 kts | 111° |
| 2026-05-05 22:51 | 42.00403 | -83.28893 | 29595 ft | 501 kts | 100° |
| 2026-05-05 22:52 | 42.00045 | -83.24264 | 28926 ft | 496 kts | 98° |
| 2026-05-05 22:52 | 41.99738 | -83.19674 | 28279 ft | 491 kts | 98° |
| 2026-05-05 22:52 | 41.99412 | -83.15188 | 27637 ft | 486 kts | 99° |
| 2026-05-05 22:52 | 41.99048 | -83.10703 | 26990 ft | 478 kts | 99° |
| 2026-05-05 22:53 | 41.98697 | -83.06298 | 26376 ft | 471 kts | 99° |
| 2026-05-05 22:53 | 41.98368 | -83.01953 | 25760 ft | 464 kts | 99° |
| 2026-05-05 22:53 | 41.98040 | -82.97671 | 25156 ft | 457 kts | 99° |
| 2026-05-05 22:53 | 41.97702 | -82.93444 | 24556 ft | 451 kts | 100° |
| 2026-05-05 22:54 | 41.97366 | -82.89272 | 23966 ft | 446 kts | 100° |
| 2026-05-05 22:54 | 41.97038 | -82.85157 | 23378 ft | 440 kts | 100° |
| 2026-05-05 22:54 | 41.96715 | -82.81106 | 22761 ft | 433 kts | 101° |
| 2026-05-05 22:54 | 41.96483 | -82.78412 | 22378 ft | 428 kts | 102° |
| 2026-05-05 22:55 | 41.95833 | -82.74616 | 21827 ft | 421 kts | 110° |
| 2026-05-05 22:55 | 41.95052 | -82.70827 | 21280 ft | 420 kts | 111° |
| 2026-05-05 22:55 | 41.94289 | -82.67060 | 20725 ft | 417 kts | 110° |
| 2026-05-05 22:55 | 41.93561 | -82.63301 | 20178 ft | 414 kts | 110° |
| 2026-05-05 22:56 | 41.92831 | -82.59561 | 19631 ft | 411 kts | 110° |
| 2026-05-05 22:56 | 41.92091 | -82.55876 | 19091 ft | 408 kts | 111° |
| 2026-05-05 22:56 | 41.91356 | -82.52201 | 18575 ft | 406 kts | 111° |
| 2026-05-05 22:56 | 41.90640 | -82.48549 | 18009 ft | 403 kts | 110° |
| 2026-05-05 22:57 | 41.89929 | -82.44927 | 17450 ft | 399 kts | 111° |
| 2026-05-05 22:57 | 41.89218 | -82.41357 | 16930 ft | 395 kts | 111° |
| 2026-05-05 22:57 | 41.88510 | -82.37811 | 16411 ft | 392 kts | 110° |
| 2026-05-05 22:57 | 41.87809 | -82.34249 | 15899 ft | 403 kts | 110° |
| 2026-05-05 22:58 | 41.87092 | -82.30616 | 15375 ft | 411 kts | 110° |
| 2026-05-05 22:58 | 41.86320 | -82.26761 | 14808 ft | 440 kts | 110° |
| 2026-05-05 22:58 | 41.85543 | -82.22822 | 14226 ft | 437 kts | 109° |
| 2026-05-05 22:58 | 41.85012 | -82.18815 | 13999 ft | 438 kts | 101° |
| 2026-05-05 22:59 | 41.84668 | -82.14735 | 14012 ft | 441 kts | 100° |
| 2026-05-05 22:59 | 41.84318 | -82.10645 | 14010 ft | 441 kts | 101° |
| 2026-05-05 22:59 | 41.83943 | -82.06552 | 13732 ft | 444 kts | 101° |
| 2026-05-05 22:59 | 41.83572 | -82.02481 | 13079 ft | 436 kts | 101° |
| 2026-05-05 23:00 | 41.82861 | -81.94492 | 11862 ft | 427 kts | 101° |
| 2026-05-05 23:00 | 41.82508 | -81.90621 | 11269 ft | 422 kts | 101° |
| 2026-05-05 23:00 | 41.82161 | -81.86793 | 10682 ft | 399 kts | 101° |
| 2026-05-05 23:01 | 41.81844 | -81.83221 | 10137 ft | 375 kts | 102° |
| 2026-05-05 23:01 | 41.81549 | -81.79847 | 9610 ft | 354 kts | 102° |
| 2026-05-05 23:01 | 41.81275 | -81.76655 | 9105 ft | 336 kts | 102° |
| 2026-05-05 23:01 | 41.81011 | -81.73624 | 8642 ft | 320 kts | 102° |
| 2026-05-05 23:02 | 41.80751 | -81.70701 | 8194 ft | 312 kts | 103° |
| 2026-05-05 23:02 | 41.80495 | -81.67825 | 7762 ft | 309 kts | 103° |
| 2026-05-05 23:02 | 41.80245 | -81.64979 | 7321 ft | 307 kts | 102° |
| 2026-05-05 23:02 | 41.79994 | -81.62147 | 6899 ft | 304 kts | 103° |
| 2026-05-05 23:03 | 41.79302 | -81.59563 | 6327 ft | 288 kts | 132° |
| 2026-05-05 23:03 | 41.77929 | -81.57759 | 5834 ft | 271 kts | 149° |
| 2026-05-05 23:03 | 41.76436 | -81.56257 | 5408 ft | 267 kts | 151° |
| 2026-05-05 23:03 | 41.74922 | -81.54800 | 4921 ft | 266 kts | 151° |
| 2026-05-05 23:04 | 41.73435 | -81.53398 | 4401 ft | 258 kts | 150° |
| 2026-05-05 23:04 | 41.71969 | -81.52058 | 3867 ft | 253 kts | 150° |
| 2026-05-05 23:04 | 41.70506 | -81.50785 | 3329 ft | 250 kts | 150° |
| 2026-05-05 23:04 | 41.69037 | -81.49569 | 3020 ft | 243 kts | 151° |
| 2026-05-05 23:05 | 41.67599 | -81.48418 | 3014 ft | 240 kts | 151° |
| 2026-05-05 23:05 | 41.66025 | -81.47804 | 2956 ft | 236 kts | 184° |
| 2026-05-05 23:05 | 41.64487 | -81.48303 | 3028 ft | 218 kts | 201° |
| 2026-05-05 23:05 | 41.63127 | -81.48918 | 2965 ft | 198 kts | 201° |
| 2026-05-05 23:06 | 41.61855 | -81.49480 | 2819 ft | 189 kts | 201° |
| 2026-05-05 23:06 | 41.60697 | -81.50229 | 2578 ft | 185 kts | 221° |
| 2026-05-05 23:06 | 41.59801 | -81.51451 | 2420 ft | 180 kts | 237° |
| 2026-05-05 23:06 | 41.59123 | -81.52824 | 2434 ft | 177 kts | 242° |
| 2026-05-05 23:07 | 41.58460 | -81.54228 | 2440 ft | 179 kts | 242° |
| 2026-05-05 23:07 | 41.57795 | -81.55647 | 2442 ft | 183 kts | 242° |
| 2026-05-05 23:07 | 41.57118 | -81.57091 | 2411 ft | 185 kts | 242° |
| 2026-05-05 23:07 | 41.56423 | -81.58571 | 2170 ft | 188 kts | 241° |
| 2026-05-05 23:08 | 41.55746 | -81.59994 | 1893 ft | 170 kts | 241° |
| 2026-05-05 23:08 | 41.55166 | -81.61215 | 1666 ft | 144 kts | 241° |
| 2026-05-05 23:08 | 41.54669 | -81.62269 | 1480 ft | 130 kts | 243° |
| 2026-05-05 23:08 | 41.54201 | -81.63279 | 1301 ft | 124 kts | 241° |
| 2026-05-05 23:09 | 41.53750 | -81.64236 | 1146 ft | 122 kts | 239° |
| 2026-05-05 23:09 | 41.53299 | -81.65195 | 991 ft | 123 kts | 239° |
| 2026-05-05 23:09 | 41.52844 | -81.66168 | 823 ft | 125 kts | 239° |
| 2026-05-05 23:09 | 41.52382 | -81.67162 | 651 ft | 127 kts | 237° |
| 2026-05-05 23:10 | 41.51939 | -81.68097 | 589 ft | 105 kts | 238° |
| 2026-05-05 23:10 | 41.51692 | -81.68594 | 587 ft | 33 kts | 225° |
| 2026-05-05 23:10 | 41.51566 | -81.68709 | 586 ft | 15 kts | 206° |
| 2026-05-05 23:10 | 41.51477 | -81.68768 | 586 ft | 13 kts | 201° |
| 2026-05-05 23:11 | 41.51412 | -81.68768 | 586 ft | 8 kts | 158° |
| 2026-05-05 23:11 | 41.51368 | -81.68756 | 587 ft | 4 kts | 189° |
| 2026-05-05 23:11 | 41.51338 | -81.68763 | 588 ft | 7 kts | 190° |
| 2026-05-05 23:11 | 41.51292 | -81.68767 | 588 ft | 4 kts | 168° |
| 2026-05-05 23:12 | 41.51267 | -81.68747 | 588 ft | 5 kts | 137° |
| 2026-05-05 23:12 | 41.51265 | -81.68719 | 587 ft | 2 kts | 50° |
| 2026-05-05 23:12 | 41.51272 | -81.68706 | 587 ft | 0 kts | 54° |